createdAt,value
2024-02-20T00:00:09.753Z,7.80
2024-02-20T00:02:45.934Z,10.25
2024-02-20T00:05:14.715Z,7.97
2024-02-20T00:07:42.257Z,6.32
2024-02-20T00:10:13.522Z,8.57
2024-02-20T00:12:40.841Z,8.55
2024-02-20T00:15:08.424Z,10.15
2024-02-20T00:17:39.255Z,10.88
2024-02-20T00:20:07.448Z,10.18
2024-02-20T00:22:35.070Z,6.30
2024-02-20T00:25:02.525Z,8.95
2024-02-20T00:27:32.012Z,7.78
2024-02-20T00:30:00.954Z,7.95
2024-02-20T00:32:28.649Z,10.70
2024-02-20T00:34:57.274Z,6.72
2024-02-20T00:37:24.787Z,7.88
2024-02-20T00:39:52.858Z,6.18
2024-02-20T00:42:22.054Z,7.15
2024-02-20T00:44:50.839Z,6.65
2024-02-20T00:47:18.023Z,6.55
2024-02-20T00:49:45.545Z,9.20
2024-02-20T00:52:12.826Z,5.82
2024-02-20T00:54:42.972Z,7.88
2024-02-20T00:57:11.981Z,8.15
2024-02-20T00:59:40.674Z,7.05
2024-02-20T01:02:12.469Z,7.60
2024-02-20T01:04:43.817Z,7.85
2024-02-20T01:07:12.708Z,8.90
2024-02-20T01:09:40.182Z,7.13
2024-02-20T01:12:07.759Z,6.68
2024-02-20T01:14:35.110Z,7.53
2024-02-20T01:17:02.353Z,7.65
2024-02-20T01:19:29.863Z,6.00
2024-02-20T01:21:58.660Z,7.22
2024-02-20T01:24:25.832Z,7.65
2024-02-20T01:26:52.971Z,6.80
2024-02-20T01:29:23.731Z,6.97
2024-02-20T01:31:51.345Z,6.50
2024-02-20T01:34:18.751Z,7.82
2024-02-20T01:36:46.606Z,7.53
2024-02-20T01:39:13.975Z,8.02
2024-02-20T01:41:41.330Z,8.80
2024-02-20T01:44:10.658Z,7.05
2024-02-20T01:46:39.172Z,8.80
2024-02-20T01:49:08.335Z,10.07
2024-02-20T01:51:37.383Z,7.18
2024-02-20T01:54:05.488Z,8.40
2024-02-20T01:56:36.767Z,10.30
2024-02-20T01:59:05.812Z,6.88
2024-02-20T02:01:33.086Z,9.75
2024-02-20T02:04:00.914Z,7.57
2024-02-20T02:06:29.797Z,9.23
2024-02-20T02:08:57.232Z,15.23
2024-02-20T02:11:24.606Z,15.63
2024-02-20T02:26:29.224Z,11.63
2024-02-20T02:28:57.164Z,10.35
2024-02-20T02:31:24.269Z,9.27
2024-02-20T02:33:53.179Z,12.73
2024-02-20T02:36:20.849Z,10.57
2024-02-20T02:38:51.432Z,11.18
2024-02-20T02:41:20.361Z,12.10
2024-02-20T02:43:47.287Z,12.68
2024-02-20T02:46:14.606Z,14.63
2024-02-20T02:48:41.561Z,14.00
2024-02-20T02:51:10.203Z,11.70
2024-02-20T02:53:41.008Z,15.18
2024-02-20T02:56:15.648Z,11.85
2024-02-20T02:58:42.793Z,10.80
2024-02-20T03:01:10.869Z,13.77
2024-02-20T03:03:38.944Z,14.75
2024-02-20T03:06:11.554Z,11.40
2024-02-20T03:08:39.444Z,11.20
2024-02-20T03:11:07.618Z,11.98
2024-02-20T03:13:36.338Z,11.05
2024-02-20T03:16:07.296Z,13.30
2024-02-20T03:18:37.590Z,13.75
2024-02-20T03:21:05.919Z,12.45
2024-02-20T03:23:34.422Z,10.38
2024-02-20T03:26:03.453Z,13.35
2024-02-20T03:28:30.915Z,11.23
2024-02-20T03:30:58.546Z,14.73
2024-02-20T03:33:27.723Z,11.48
2024-02-20T03:35:55.160Z,12.88
2024-02-20T03:38:22.902Z,10.55
2024-02-20T03:40:50.167Z,14.45
2024-02-20T03:43:17.473Z,13.68
2024-02-20T03:45:44.740Z,11.23
2024-02-20T03:48:12.335Z,12.75
2024-02-20T03:50:39.408Z,13.18
2024-02-20T03:53:08.270Z,11.02
2024-02-20T03:55:35.593Z,14.68
2024-02-20T03:58:03.043Z,13.45
2024-02-20T04:00:30.484Z,12.77
2024-02-20T04:02:58.502Z,11.50
2024-02-20T04:05:25.900Z,13.73
2024-02-20T04:07:53.247Z,18.38
2024-02-20T04:10:20.750Z,16.95
2024-02-20T04:12:47.874Z,14.10
2024-02-20T04:15:16.046Z,18.15
2024-02-20T04:17:43.195Z,23.60
2024-02-20T04:20:12.736Z,26.33
2024-02-20T04:22:40.404Z,28.25
2024-02-20T04:25:08.892Z,18.20
2024-02-20T04:27:39.341Z,13.88
2024-02-20T04:30:08.798Z,19.52
2024-02-20T04:32:36.786Z,13.98
2024-02-20T04:35:04.366Z,11.60
2024-02-20T04:37:32.574Z,11.05
2024-02-20T04:39:59.774Z,12.40
2024-02-20T04:42:28.045Z,12.57
2024-02-20T04:44:55.228Z,13.70
2024-02-20T04:47:24.317Z,15.00
2024-02-20T04:49:54.850Z,13.75
2024-02-20T04:52:22.007Z,10.38
2024-02-20T04:54:50.451Z,12.52
2024-02-20T04:57:17.443Z,11.70
2024-02-20T04:59:47.525Z,12.48
2024-02-20T05:02:16.214Z,11.90
2024-02-20T05:04:44.242Z,10.48
2024-02-20T05:07:12.434Z,10.63
2024-02-20T05:09:39.755Z,11.00
2024-02-20T05:12:06.953Z,14.70
2024-02-20T05:14:33.913Z,12.32
2024-02-20T05:17:01.625Z,10.07
2024-02-20T05:19:28.994Z,9.68
2024-02-20T05:21:58.187Z,11.60
2024-02-20T05:24:25.294Z,9.55
2024-02-20T05:26:52.522Z,9.43
2024-02-20T05:29:19.524Z,11.48
2024-02-20T05:31:46.963Z,10.27
2024-02-20T05:34:14.551Z,12.13
2024-02-20T05:36:42.311Z,10.68
2024-02-20T05:39:11.338Z,10.90
2024-02-20T05:41:39.092Z,8.13
2024-02-20T05:44:06.353Z,8.48
2024-02-20T05:46:34.876Z,8.48
2024-02-20T05:49:05.910Z,7.70
2024-02-20T05:51:34.373Z,9.25
2024-02-20T05:54:01.548Z,8.20
2024-02-20T05:56:28.674Z,6.55
2024-02-20T05:58:55.742Z,7.13
2024-02-20T06:01:22.807Z,10.75
2024-02-20T06:03:52.804Z,8.77
2024-02-20T06:06:23.054Z,8.55
2024-02-20T06:08:52.314Z,8.63
2024-02-20T06:11:23.548Z,7.68
2024-02-20T06:13:50.772Z,6.97
2024-02-20T06:16:18.498Z,5.13
2024-02-20T06:18:45.548Z,9.20
2024-02-20T06:21:12.615Z,3.92
2024-02-20T06:23:46.015Z,4.28
2024-02-20T06:26:15.901Z,5.07
2024-02-20T06:28:43.469Z,2.55
2024-02-20T06:31:11.025Z,3.20
2024-02-20T06:33:38.626Z,3.45
2024-02-20T06:36:05.920Z,4.00
2024-02-20T06:38:34.038Z,2.90
2024-02-20T06:41:02.404Z,3.80
2024-02-20T06:43:29.742Z,3.50
2024-02-20T06:45:57.552Z,3.28
2024-02-20T06:48:24.868Z,3.42
2024-02-20T06:50:53.421Z,2.40
2024-02-20T06:53:20.802Z,2.33
2024-02-20T06:55:48.576Z,3.10
2024-02-20T06:58:15.677Z,4.10
2024-02-20T07:00:42.839Z,2.78
2024-02-20T07:03:11.800Z,3.97
2024-02-20T07:05:40.115Z,2.95
2024-02-20T07:08:07.931Z,3.58
2024-02-20T07:10:35.150Z,2.10
2024-02-20T07:13:02.404Z,3.28
2024-02-20T07:15:29.650Z,2.75
2024-02-20T07:17:57.077Z,3.17
2024-02-20T07:20:24.538Z,2.75
2024-02-20T07:22:53.572Z,2.85
2024-02-20T07:25:23.043Z,8.20
2024-02-20T07:27:52.527Z,25.42
2024-02-20T07:30:19.632Z,20.73
2024-02-20T07:32:46.852Z,12.40
2024-02-20T07:35:19.027Z,5.75
2024-02-20T07:37:47.483Z,2.72
2024-02-20T07:40:14.857Z,3.05
2024-02-20T07:42:41.972Z,2.90
2024-02-20T07:45:10.557Z,4.20
2024-02-20T07:47:37.785Z,2.92
2024-02-20T07:50:06.321Z,3.70
2024-02-20T07:52:34.270Z,3.42
2024-02-20T07:55:02.973Z,6.40
2024-02-20T07:57:34.410Z,3.38
2024-02-20T08:00:02.788Z,4.00
2024-02-20T08:02:39.696Z,4.15
2024-02-20T08:05:08.006Z,4.32
2024-02-20T08:07:37.012Z,4.15
2024-02-20T08:10:07.681Z,3.30
2024-02-20T08:12:35.014Z,3.28
2024-02-20T08:15:02.253Z,4.15
2024-02-20T08:17:30.201Z,3.80
2024-02-20T08:19:57.819Z,3.33
2024-02-20T08:22:25.011Z,3.10
2024-02-20T08:24:52.104Z,2.65
2024-02-20T08:27:19.137Z,4.10
2024-02-20T08:29:46.458Z,2.80
2024-02-20T08:32:14.337Z,2.25
2024-02-20T08:34:41.568Z,1.92
2024-02-20T08:37:08.827Z,3.78
2024-02-20T08:39:36.397Z,2.30
2024-02-20T08:42:03.476Z,3.28
2024-02-20T08:44:30.728Z,2.63
2024-02-20T08:46:57.896Z,2.70
2024-02-20T08:49:28.396Z,2.50
2024-02-20T08:51:57.859Z,1.70
2024-02-20T08:54:25.035Z,1.63
2024-02-20T08:56:55.522Z,2.05
2024-02-20T08:59:22.727Z,2.97
2024-02-20T09:01:50.681Z,5.38
2024-02-20T09:04:17.938Z,3.60
2024-02-20T09:06:48.598Z,1.83
2024-02-20T09:09:18.655Z,2.75
2024-02-20T09:11:51.416Z,2.58
2024-02-20T09:14:20.733Z,4.72
2024-02-20T09:16:48.661Z,4.93
2024-02-20T09:19:17.426Z,4.10
2024-02-20T09:21:44.635Z,4.47
2024-02-20T09:24:12.638Z,4.32
2024-02-20T09:26:39.808Z,2.88
2024-02-20T09:29:06.955Z,2.92
2024-02-20T09:31:35.557Z,3.97
2024-02-20T09:34:03.385Z,5.63
2024-02-20T09:36:30.419Z,2.30
2024-02-20T09:38:57.945Z,3.72
2024-02-20T09:41:25.364Z,3.42
2024-02-20T09:43:54.426Z,3.63
2024-02-20T09:46:22.375Z,3.17
2024-02-20T09:48:51.069Z,5.05
2024-02-20T09:51:20.539Z,3.10
2024-02-20T09:53:49.209Z,5.80
2024-02-20T09:56:19.830Z,3.75
2024-02-20T09:58:48.400Z,4.47
2024-02-20T10:01:16.749Z,5.20
2024-02-20T10:03:48.394Z,4.88
2024-02-20T10:06:19.579Z,6.88
2024-02-20T10:08:52.117Z,8.95
2024-02-20T10:11:20.436Z,4.75
2024-02-20T10:13:52.938Z,8.70
2024-02-20T10:16:20.667Z,7.53
2024-02-20T10:19:02.575Z,6.30
2024-02-20T10:21:30.446Z,7.13
2024-02-20T10:24:14.536Z,4.57
2024-02-20T10:26:48.834Z,5.57
2024-02-20T10:29:16.185Z,8.57
2024-02-20T10:31:44.043Z,9.90
2024-02-20T10:34:14.909Z,7.50
2024-02-20T10:36:42.508Z,10.95
2024-02-20T10:39:12.146Z,12.40
2024-02-20T10:41:40.591Z,10.90
2024-02-20T10:44:08.486Z,15.45
2024-02-20T10:46:40.627Z,12.43
2024-02-20T10:49:33.551Z,11.73
2024-02-20T10:52:05.546Z,8.25
2024-02-20T10:54:43.337Z,9.57
2024-02-20T10:57:16.385Z,9.95
2024-02-20T10:59:50.990Z,7.43
2024-02-20T11:02:19.656Z,11.88
2024-02-20T11:04:47.770Z,11.68
2024-02-20T11:07:16.025Z,11.57
2024-02-20T11:10:11.105Z,8.75
2024-02-20T11:12:38.734Z,11.55
2024-02-20T11:15:10.999Z,10.07
2024-02-20T11:17:38.849Z,7.18
2024-02-20T11:20:20.918Z,12.38
2024-02-20T11:22:52.292Z,12.13
2024-02-20T11:25:22.531Z,12.40
2024-02-20T11:27:49.760Z,12.63
2024-02-20T11:30:21.897Z,10.70
2024-02-20T11:32:51.419Z,13.70
2024-02-20T11:35:37.586Z,10.65
2024-02-20T11:38:11.198Z,11.30
2024-02-20T11:40:38.937Z,10.52
2024-02-20T11:43:07.088Z,12.38
2024-02-20T11:45:35.736Z,13.82
2024-02-20T11:48:11.574Z,9.88
2024-02-20T11:50:40.099Z,13.18
2024-02-20T11:53:10.659Z,13.07
2024-02-20T11:55:42.144Z,11.93
2024-02-20T11:58:10.305Z,16.83
2024-02-20T12:00:40.372Z,12.38
2024-02-20T12:03:09.325Z,14.52
2024-02-20T12:05:43.103Z,9.07
2024-02-20T12:08:20.060Z,14.57
2024-02-20T12:10:49.841Z,17.30
2024-02-20T12:13:20.679Z,13.77
2024-02-20T12:15:52.867Z,13.93
2024-02-20T12:18:27.271Z,12.77
2024-02-20T12:21:12.187Z,13.98
2024-02-20T12:23:40.511Z,12.18
2024-02-20T12:26:08.763Z,15.10
2024-02-20T12:28:37.766Z,11.80
2024-02-20T12:31:09.824Z,8.85
2024-02-20T12:33:38.559Z,11.77
2024-02-20T12:36:09.542Z,12.00
2024-02-20T12:38:37.047Z,13.13
2024-02-20T12:41:05.017Z,12.93
2024-02-20T12:43:33.456Z,14.25
2024-02-20T12:46:00.813Z,13.93
2024-02-20T12:48:30.071Z,12.38
2024-02-20T12:51:00.695Z,16.00
2024-02-20T12:53:28.194Z,15.00
2024-02-20T12:55:55.520Z,12.23
2024-02-20T12:58:23.616Z,10.90
2024-02-20T13:00:50.660Z,14.93
2024-02-20T13:03:18.038Z,13.45
2024-02-20T13:05:46.892Z,15.75
2024-02-20T13:08:15.231Z,15.10
2024-02-20T13:10:43.655Z,13.57
2024-02-20T13:13:11.705Z,13.75
2024-02-20T13:15:38.940Z,14.13
2024-02-20T13:18:06.795Z,16.45
2024-02-20T13:20:35.704Z,12.90
2024-02-20T13:23:04.273Z,15.27
2024-02-20T13:25:31.357Z,12.77
2024-02-20T13:28:01.126Z,14.07
2024-02-20T13:30:29.525Z,16.92
2024-02-20T13:32:57.551Z,13.95
2024-02-20T13:35:24.829Z,17.65
2024-02-20T13:37:52.138Z,15.70
2024-02-20T13:40:19.641Z,14.20
2024-02-20T13:42:48.547Z,15.05
2024-02-20T13:45:19.304Z,15.25
2024-02-20T13:47:47.242Z,19.30
2024-02-20T13:50:14.502Z,13.68
2024-02-20T13:52:41.917Z,13.13
2024-02-20T13:55:10.513Z,18.90
2024-02-20T13:57:38.174Z,16.13
2024-02-20T14:00:08.169Z,11.85
2024-02-20T14:02:39.596Z,12.60
2024-02-20T14:05:08.830Z,18.38
2024-02-20T14:07:36.184Z,11.48
2024-02-20T14:10:04.766Z,12.70
2024-02-20T14:12:32.048Z,13.75
2024-02-20T14:15:01.444Z,13.43
2024-02-20T14:17:31.471Z,12.98
2024-02-20T14:19:58.786Z,15.02
2024-02-20T14:22:28.331Z,10.38
2024-02-20T14:24:56.546Z,13.13
2024-02-20T14:27:23.593Z,13.15
2024-02-20T14:29:51.698Z,11.27
2024-02-20T14:32:18.916Z,8.63
2024-02-20T14:34:46.038Z,13.40
2024-02-20T14:37:13.271Z,11.52
2024-02-20T14:39:40.750Z,14.65
2024-02-20T14:42:08.537Z,14.95
2024-02-20T14:44:36.312Z,13.00
2024-02-20T14:47:05.393Z,11.40
2024-02-20T14:49:32.857Z,8.82
2024-02-20T14:51:59.950Z,12.02
2024-02-20T14:54:29.201Z,13.55
2024-02-20T14:56:56.225Z,14.52
2024-02-20T14:59:23.484Z,12.82
2024-02-20T15:01:53.947Z,13.63
2024-02-20T15:04:21.380Z,15.05
2024-02-20T15:06:51.987Z,11.80
2024-02-20T15:09:22.255Z,18.48
2024-02-20T15:11:49.890Z,11.85
2024-02-20T15:14:17.599Z,13.23
2024-02-20T15:16:45.051Z,12.48
2024-02-20T15:19:12.947Z,9.30
2024-02-20T15:21:40.579Z,13.75
2024-02-20T15:24:08.301Z,18.58
2024-02-20T15:26:35.495Z,15.20
2024-02-20T15:29:02.532Z,18.90
2024-02-20T15:31:29.691Z,12.88
2024-02-20T15:33:56.885Z,11.77
2024-02-20T15:36:24.228Z,13.25
2024-02-20T15:38:51.271Z,16.27
2024-02-20T15:41:21.231Z,12.90
2024-02-20T15:43:49.159Z,15.10
2024-02-20T15:46:20.798Z,11.93
2024-02-20T15:48:52.286Z,12.05
2024-02-20T15:51:19.976Z,12.88
2024-02-20T15:53:47.138Z,10.93
2024-02-20T15:56:15.345Z,11.65
2024-02-20T15:58:42.695Z,13.07
2024-02-20T16:01:09.973Z,11.95
2024-02-20T16:03:37.366Z,12.10
2024-02-20T16:06:05.327Z,18.35
2024-02-20T16:08:33.075Z,18.83
2024-02-20T16:11:01.056Z,19.67
2024-02-20T16:13:28.460Z,14.90
2024-02-20T16:15:56.289Z,19.00
2024-02-20T16:18:26.941Z,12.45
2024-02-20T16:20:54.830Z,17.80
2024-02-20T16:23:22.271Z,12.50
2024-02-20T16:25:49.427Z,20.42
2024-02-20T16:28:17.101Z,17.50
2024-02-20T16:30:44.248Z,15.48
2024-02-20T16:33:11.415Z,13.73
2024-02-20T16:35:38.768Z,15.63
2024-02-20T16:38:06.045Z,12.73
2024-02-20T16:40:33.385Z,10.65
2024-02-20T16:43:01.829Z,17.83
2024-02-20T16:45:32.813Z,12.85
2024-02-20T16:48:01.222Z,11.90
2024-02-20T16:50:34.409Z,15.55
2024-02-20T16:53:04.386Z,17.55
2024-02-20T16:55:32.440Z,15.40
2024-02-20T16:58:00.950Z,14.93
2024-02-20T17:00:30.440Z,16.85
2024-02-20T17:02:59.531Z,18.05
2024-02-20T17:05:28.219Z,25.08
2024-02-20T17:07:57.504Z,21.40
2024-02-20T17:10:25.219Z,19.90
2024-02-20T17:12:53.038Z,18.30
2024-02-20T17:15:20.692Z,15.75
2024-02-20T17:17:47.785Z,15.18
2024-02-20T17:20:15.007Z,16.10
2024-02-20T17:22:44.842Z,14.02
2024-02-20T17:25:12.790Z,13.77
2024-02-20T17:27:40.021Z,16.05
2024-02-20T17:30:08.223Z,16.65
2024-02-20T17:32:35.783Z,15.15
2024-02-20T17:35:05.434Z,10.68
2024-02-20T17:37:33.028Z,15.90
2024-02-20T17:40:03.881Z,12.00
2024-02-20T17:42:31.762Z,19.42
2024-02-20T17:44:59.365Z,11.13
2024-02-20T17:47:26.640Z,10.07
2024-02-20T17:49:54.466Z,11.18
2024-02-20T17:52:21.535Z,13.30
2024-02-20T17:54:48.585Z,14.73
2024-02-20T17:57:17.825Z,10.80
2024-02-20T17:59:45.154Z,13.73
2024-02-20T18:02:14.306Z,11.68
2024-02-20T18:04:41.525Z,10.20
2024-02-20T18:07:08.902Z,17.05
2024-02-20T18:09:35.953Z,13.73
2024-02-20T18:12:03.141Z,19.63
2024-02-20T18:14:30.291Z,17.17
2024-02-20T18:16:57.327Z,11.65
2024-02-20T18:19:24.688Z,17.50
2024-02-20T18:21:51.698Z,11.63
2024-02-20T18:24:18.714Z,15.15
2024-02-20T18:26:45.725Z,15.48
2024-02-20T18:29:13.325Z,14.82
2024-02-20T18:31:40.523Z,11.65
2024-02-20T18:34:07.654Z,14.07
2024-02-20T18:36:34.744Z,10.02
2024-02-20T18:39:02.126Z,9.50
2024-02-20T18:41:29.900Z,11.63
2024-02-20T18:43:57.319Z,13.98
2024-02-20T18:46:26.183Z,9.77
2024-02-20T18:48:53.669Z,11.15
2024-02-20T18:51:22.823Z,14.23
2024-02-20T18:53:50.175Z,13.18
2024-02-20T18:56:17.279Z,11.18
2024-02-20T18:58:44.364Z,13.00
2024-02-20T19:01:15.715Z,12.45
2024-02-20T19:03:45.527Z,10.07
2024-02-20T19:06:12.639Z,13.30
2024-02-20T19:08:44.910Z,16.35
2024-02-20T19:11:13.263Z,14.70
2024-02-20T19:13:43.605Z,12.18
2024-02-20T19:16:13.897Z,11.45
2024-02-20T19:18:42.752Z,10.00
2024-02-20T19:21:18.261Z,14.52
2024-02-20T19:23:45.469Z,8.57
2024-02-20T19:26:12.620Z,18.08
2024-02-20T19:28:42.216Z,7.80
2024-02-20T19:31:15.846Z,13.27
2024-02-20T19:33:45.522Z,12.93
2024-02-20T19:36:13.045Z,13.52
2024-02-20T19:38:40.740Z,13.68
2024-02-20T19:41:07.859Z,19.40
2024-02-20T19:43:35.534Z,15.15
2024-02-20T19:46:03.969Z,12.75
2024-02-20T19:48:31.514Z,11.88
2024-02-20T19:50:59.351Z,11.80
2024-02-20T19:53:26.554Z,9.15
2024-02-20T19:55:55.099Z,14.77
2024-02-20T19:58:24.161Z,12.73
2024-02-20T20:00:52.419Z,11.38
2024-02-20T20:03:19.470Z,14.00
2024-02-20T20:05:46.662Z,9.85
2024-02-20T20:08:13.841Z,12.02
2024-02-20T20:10:41.028Z,13.63
2024-02-20T20:13:08.116Z,17.50
2024-02-20T20:15:37.991Z,14.82
2024-02-20T20:18:05.815Z,13.75
2024-02-20T20:20:33.266Z,17.60
2024-02-20T20:23:00.405Z,12.82
2024-02-20T20:25:27.554Z,15.35
2024-02-20T20:27:54.638Z,14.70
2024-02-20T20:30:22.522Z,14.23
2024-02-20T20:32:49.911Z,9.90
2024-02-20T20:35:17.191Z,12.65
2024-02-20T20:37:44.321Z,14.90
2024-02-20T20:40:11.789Z,11.65
2024-02-20T20:42:38.955Z,11.57
2024-02-20T20:45:06.558Z,12.27
2024-02-20T20:47:33.703Z,9.95
2024-02-20T20:50:00.910Z,11.13
2024-02-20T20:52:28.156Z,13.63
2024-02-20T20:54:55.251Z,10.52
2024-02-20T20:57:23.905Z,11.75
2024-02-20T20:59:51.849Z,12.18
2024-02-20T21:02:20.624Z,12.70
2024-02-20T21:04:49.371Z,10.80
2024-02-20T21:07:16.694Z,9.48
2024-02-20T21:09:44.988Z,8.95
2024-02-20T21:12:12.191Z,12.75
2024-02-20T21:14:40.583Z,13.07
2024-02-20T21:17:07.779Z,8.98
2024-02-20T21:19:35.158Z,12.32
2024-02-20T21:22:04.774Z,12.50
2024-02-20T21:24:32.077Z,11.07
2024-02-20T21:26:59.069Z,9.63
2024-02-20T21:29:26.234Z,11.32
2024-02-20T21:31:53.500Z,18.15
2024-02-20T21:34:20.983Z,13.93
2024-02-20T21:36:49.667Z,12.70
2024-02-20T21:39:17.718Z,9.32
2024-02-20T21:41:45.172Z,15.50
2024-02-20T21:44:12.274Z,10.05
2024-02-20T21:46:39.489Z,11.93
2024-02-20T21:49:06.731Z,12.75
2024-02-20T21:51:34.078Z,14.43
2024-02-20T21:54:01.237Z,9.18
2024-02-20T21:56:28.221Z,11.98
2024-02-20T21:58:55.359Z,10.38
2024-02-20T22:01:23.146Z,8.73
2024-02-20T22:03:50.267Z,6.15
2024-02-20T22:06:18.389Z,12.38
2024-02-20T22:08:46.417Z,11.07
2024-02-20T22:11:13.661Z,9.68
2024-02-20T22:13:42.954Z,12.68
2024-02-20T22:16:10.178Z,9.50
2024-02-20T22:18:38.064Z,9.27
2024-02-20T22:21:05.813Z,9.65
2024-02-20T22:23:34.030Z,10.20
2024-02-20T22:26:05.658Z,10.40
2024-02-20T22:28:33.120Z,10.23
2024-02-20T22:31:00.608Z,10.23
2024-02-20T22:33:29.548Z,10.07
2024-02-20T22:35:57.789Z,11.73
2024-02-20T22:38:25.068Z,14.40
2024-02-20T22:40:53.400Z,11.98
2024-02-20T22:43:22.149Z,12.90
2024-02-20T22:45:49.708Z,11.68
2024-02-20T22:48:17.218Z,12.75
2024-02-20T22:50:45.306Z,17.38
2024-02-20T22:53:12.614Z,13.45
2024-02-20T22:55:39.661Z,11.52
2024-02-20T22:58:08.237Z,14.50
2024-02-20T23:00:35.306Z,12.85
2024-02-20T23:03:02.352Z,11.73
2024-02-20T23:05:29.488Z,9.85
2024-02-20T23:07:56.583Z,11.07
2024-02-20T23:10:23.805Z,15.98
2024-02-20T23:12:50.965Z,10.43
2024-02-20T23:15:18.090Z,10.05
2024-02-20T23:17:45.092Z,12.88
2024-02-20T23:20:12.602Z,12.32
2024-02-20T23:22:40.145Z,11.80
2024-02-20T23:25:07.819Z,13.02
2024-02-20T23:27:35.038Z,10.85
2024-02-20T23:30:03.152Z,12.27
2024-02-20T23:32:30.235Z,11.65
2024-02-20T23:34:57.271Z,7.93
2024-02-20T23:37:24.356Z,9.82
2024-02-20T23:39:51.416Z,9.77
2024-02-20T23:42:18.570Z,12.40
2024-02-20T23:44:47.347Z,9.00
2024-02-20T23:47:15.685Z,11.98
2024-02-20T23:49:42.831Z,12.50
2024-02-20T23:52:10.204Z,10.55
2024-02-20T23:54:38.309Z,9.13
2024-02-20T23:57:06.399Z,13.23
2024-02-20T23:59:33.520Z,10.30
